PWSweather.com
Personal Weather Stations
Station Observations
SHAHALMS1
Eftra, Falkenberg, HA

EftraFalkenberg, HA

Lat: 56.85, Lon: 12.65

Elevation: 140

Station Type:

http://hem.passagen.se/risarp101

High Low Average
Temperature 71.6°F22.0°C 57.4°F14.1°C 61.6°F16.4°C
Dew Point 65.5°F18.6°C 53.6°F12.0°C 57.8°F14.3°C
Winds 17.8 mph 28.6 kmh Calm Calm 6.0 mph ENE9.7 kmh ENE
Wind Gusts 27.9 mph44.9 kmh -- 12.0 mph19.3 kmh
Humidity 97% 73% 88%
Pressure 29.77 in1008.1 mb 29.53 in1000.0 mb -
Precipitation 0.20 in5.1 mm - -
Hour Temp Dew Point Humidity Winds Wind Gusts Pressure Precip Precip Rate Daily Precip Total
12:00 AM 59.2°F15.1°C 54.0°F12.2°C 83% 8.1 mph E13.0 kmh E 12.2 mph19.6 kmh 29.77 in1008.1 mb 0.00 in0.0 mm 0.00 in0.0 mm 0.00 in0.0 mm
12:10 AM 59.2°F15.1°C 54.3°F12.4°C 84% 7.2 mph E11.6 kmh E 9.7 mph15.6 kmh 29.77 in1008.1 mb 0.00 in0.0 mm 0.00 in0.0 mm 0.00 in0.0 mm
12:20 AM 59.2°F15.1°C 54.3°F12.4°C 84% 7.2 mph ENE11.6 kmh ENE 17.9 mph28.8 kmh 29.74 in1007.1 mb 0.00 in0.0 mm 0.00 in0.0 mm 0.00 in0.0 mm
12:30 AM 59.4°F15.2°C 54.5°F12.5°C 84% 4.7 mph E7.6 kmh E 9.3 mph15.0 kmh 29.74 in1007.1 mb 0.00 in0.0 mm 0.00 in0.0 mm 0.00 in0.0 mm
12:40 AM 59.2°F15.1°C 54.3°F12.4°C 84% 6.8 mph NE10.9 kmh NE 14.3 mph23.0 kmh 29.74 in1007.1 mb 0.00 in0.0 mm 0.00 in0.0 mm 0.00 in0.0 mm
12:50 AM 59.2°F15.1°C 54.3°F12.4°C 84% 7.9 mph ENE12.7 kmh ENE 10.0 mph16.1 kmh 29.71 in1006.1 mb 0.00 in0.0 mm 0.00 in0.0 mm 0.00 in0.0 mm
01:00 AM 59.2°F15.1°C 54.3°F12.4°C 84% 6.4 mph ENE10.3 kmh ENE 12.9 mph20.8 kmh 29.74 in1007.1 mb 0.00 in0.0 mm 0.00 in0.0 mm 0.00 in0.0 mm
01:10 AM 59.2°F15.1°C 54.3°F12.4°C 84% 5.9 mph SE9.5 kmh SE 8.9 mph14.3 kmh 29.74 in1007.1 mb 0.00 in0.0 mm 0.00 in0.0 mm 0.00 in0.0 mm
01:20 AM 59.0°F15.0°C 54.2°F12.3°C 84% 6.2 mph E10.0 kmh E 8.9 mph14.3 kmh 29.74 in1007.1 mb 0.00 in0.0 mm 0.00 in0.0 mm 0.00 in0.0 mm
01:30 AM 59.0°F15.0°C 54.2°F12.3°C 84% 2.1 mph N3.4 kmh N 9.7 mph15.6 kmh 29.71 in1006.1 mb 0.00 in0.0 mm 0.00 in0.0 mm 0.00 in0.0 mm
01:40 AM 58.8°F14.9°C 54.0°F12.2°C 84% 7.9 mph N12.7 kmh N 9.7 mph15.6 kmh 29.71 in1006.1 mb 0.00 in0.0 mm 0.00 in0.0 mm 0.00 in0.0 mm
01:50 AM 58.8°F14.9°C 54.3°F12.4°C 85% 6.9 mph ENE11.1 kmh ENE 11.8 mph19.0 kmh 29.74 in1007.1 mb 0.00 in0.0 mm 0.00 in0.0 mm 0.00 in0.0 mm
02:00 AM 58.6°F14.8°C 53.8°F12.1°C 84% 3.5 mph ENE5.6 kmh ENE 11.8 mph19.0 kmh 29.74 in1007.1 mb 0.00 in0.0 mm 0.00 in0.0 mm 0.00 in0.0 mm
02:10 AM 58.5°F14.7°C 54.0°F12.2°C 85% 2.9 mph NNE4.7 kmh NNE 6.4 mph10.3 kmh 29.74 in1007.1 mb 0.00 in0.0 mm 0.00 in0.0 mm 0.00 in0.0 mm
02:20 AM 58.5°F14.7°C 54.0°F12.2°C 85% 3.5 mph E5.6 kmh E 6.4 mph10.3 kmh 29.74 in1007.1 mb 0.00 in0.0 mm 0.00 in0.0 mm 0.00 in0.0 mm
02:30 AM 58.3°F14.6°C 53.8°F12.1°C 85% 1.8 mph NNE2.9 kmh NNE 5.0 mph8.0 kmh 29.74 in1007.1 mb 0.00 in0.0 mm 0.00 in0.0 mm 0.00 in0.0 mm
02:40 AM 58.3°F14.6°C 53.8°F12.1°C 85% 1.7 mph NE2.7 kmh NE 3.2 mph5.1 kmh 29.74 in1007.1 mb 0.00 in0.0 mm 0.00 in0.0 mm 0.00 in0.0 mm
02:50 AM 58.3°F14.6°C 54.1°F12.3°C 86% 3.7 mph NE6.0 kmh NE 7.9 mph12.7 kmh 29.74 in1007.1 mb 0.00 in0.0 mm 0.00 in0.0 mm 0.00 in0.0 mm
03:00 AM 58.3°F14.6°C 54.1°F12.3°C 86% 4.1 mph NE6.6 kmh NE 8.9 mph14.3 kmh 29.74 in1007.1 mb 0.00 in0.0 mm 0.00 in0.0 mm 0.00 in0.0 mm
03:10 AM 58.5°F14.7°C 54.0°F12.2°C 85% 6.5 mph E10.5 kmh E 8.9 mph14.3 kmh 29.74 in1007.1 mb 0.00 in0.0 mm 0.00 in0.0 mm 0.00 in0.0 mm
03:20 AM 58.5°F14.7°C 54.0°F12.2°C 85% 6.4 mph E10.3 kmh E 7.9 mph12.7 kmh 29.71 in1006.1 mb 0.00 in0.0 mm 0.00 in0.0 mm 0.00 in0.0 mm
03:30 AM 58.5°F14.7°C 53.6°F12.0°C 84% 4.7 mph N7.6 kmh N 5.7 mph9.2 kmh 29.74 in1007.1 mb 0.00 in0.0 mm 0.00 in0.0 mm 0.00 in0.0 mm
03:40 AM 58.5°F14.7°C 53.6°F12.0°C 84% 5.2 mph NNE8.4 kmh NNE 7.9 mph12.7 kmh 29.74 in1007.1 mb 0.00 in0.0 mm 0.00 in0.0 mm 0.00 in0.0 mm
03:50 AM 58.5°F14.7°C 53.6°F12.0°C 84% 5.8 mph E9.3 kmh E 7.9 mph12.7 kmh 29.71 in1006.1 mb 0.00 in0.0 mm 0.00 in0.0 mm 0.00 in0.0 mm
04:00 AM 58.5°F14.7°C 53.6°F12.0°C 84% 5.5 mph E8.9 kmh E 6.8 mph10.9 kmh 29.71 in1006.1 mb 0.00 in0.0 mm 0.00 in0.0 mm 0.00 in0.0 mm
04:10 AM 58.5°F14.7°C 53.6°F12.0°C 84% 5.5 mph E8.9 kmh E 6.8 mph10.9 kmh 29.71 in1006.1 mb 0.00 in0.0 mm 0.00 in0.0 mm 0.00 in0.0 mm
04:20 AM 58.5°F14.7°C 53.6°F12.0°C 84% 5.5 mph E8.9 kmh E 6.8 mph10.9 kmh 29.74 in1007.1 mb 0.00 in0.0 mm 0.00 in0.0 mm 0.00 in0.0 mm
04:30 AM 58.5°F14.7°C 53.6°F12.0°C 84% 5.5 mph E8.9 kmh E 6.8 mph10.9 kmh 29.74 in1007.1 mb 0.00 in0.0 mm 0.00 in0.0 mm 0.00 in0.0 mm
04:40 AM 58.5°F14.7°C 53.6°F12.0°C 84% 4.9 mph NE7.9 kmh NE 6.1 mph9.8 kmh 29.74 in1007.1 mb 0.00 in0.0 mm 0.00 in0.0 mm 0.00 in0.0 mm
04:50 AM 58.5°F14.7°C 53.6°F12.0°C 84% 4.9 mph NE7.9 kmh NE 6.1 mph9.8 kmh 29.71 in1006.1 mb 0.00 in0.0 mm 0.00 in0.0 mm 0.00 in0.0 mm
05:00 AM 58.3°F14.6°C 53.8°F12.1°C 85% 4.9 mph NE7.9 kmh NE 6.1 mph9.8 kmh 29.71 in1006.1 mb 0.00 in0.0 mm 0.00 in0.0 mm 0.00 in0.0 mm
05:10 AM 57.9°F14.4°C 53.8°F12.1°C 86% 4.9 mph NE7.9 kmh NE 6.1 mph9.8 kmh 29.71 in1006.1 mb 0.00 in0.0 mm 0.00 in0.0 mm 0.00 in0.0 mm
05:20 AM 57.7°F14.3°C 54.2°F12.3°C 88% 6.8 mph E10.9 kmh E 10.4 mph16.7 kmh 29.74 in1007.1 mb 0.00 in0.0 mm 0.00 in0.0 mm 0.00 in0.0 mm
05:30 AM 57.6°F14.2°C 54.3°F12.4°C 89% 5.2 mph E8.4 kmh E 10.4 mph16.7 kmh 29.71 in1006.1 mb 0.00 in0.0 mm 0.00 in0.0 mm 0.00 in0.0 mm
05:40 AM 57.4°F14.1°C 54.2°F12.3°C 89% 6.4 mph E10.3 kmh E 10.0 mph16.1 kmh 29.71 in1006.1 mb 0.00 in0.0 mm 0.00 in0.0 mm 0.00 in0.0 mm
05:50 AM 57.4°F14.1°C 54.5°F12.5°C 90% 3.5 mph ESE5.6 kmh ESE 10.0 mph16.1 kmh 29.74 in1007.1 mb 0.06 in1.5 mm 0.36 in9.1 mm 0.06 in1.5 mm
06:00 AM 57.4°F14.1°C 54.8°F12.7°C 91% 3.5 mph E5.6 kmh E 6.4 mph10.3 kmh 29.74 in1007.1 mb 0.06 in1.5 mm 0.00 in0.0 mm 0.06 in1.5 mm
06:10 AM 57.4°F14.1°C 55.4°F13.0°C 93% 4.9 mph ENE7.9 kmh ENE 6.1 mph9.8 kmh 29.74 in1007.1 mb 0.09 in2.3 mm 0.18 in4.6 mm 0.09 in2.3 mm
06:20 AM 57.6°F14.2°C 56.1°F13.4°C 95% 5.2 mph E8.4 kmh E 6.8 mph10.9 kmh 29.71 in1006.1 mb 0.09 in2.3 mm 0.00 in0.0 mm 0.09 in2.3 mm
06:30 AM 57.7°F14.3°C 56.9°F13.8°C 97% 5.6 mph E9.0 kmh E 7.5 mph12.1 kmh 29.68 in1005.1 mb 0.15 in3.8 mm 0.36 in9.1 mm 0.15 in3.8 mm
06:40 AM 57.9°F14.4°C 57.1°F13.9°C 97% 6.6 mph NE10.6 kmh NE 10.4 mph16.7 kmh 29.68 in1005.1 mb 0.15 in3.8 mm 0.00 in0.0 mm 0.15 in3.8 mm
06:50 AM 58.3°F14.6°C 57.4°F14.1°C 97% 3.8 mph NE6.1 kmh NE 4.7 mph7.6 kmh 29.65 in1004.1 mb 0.09 in2.3 mm 0.00 in0.0 mm 0.15 in3.8 mm
07:00 AM 58.8°F14.9°C 58.0°F14.4°C 97% 3.8 mph NE6.1 kmh NE 4.7 mph7.6 kmh 29.62 in1003.0 mb 0.09 in2.3 mm 0.00 in0.0 mm 0.15 in3.8 mm
07:10 AM 58.8°F14.9°C 58.0°F14.4°C 97% 12.4 mph E20.0 kmh E 20.0 mph32.2 kmh 29.62 in1003.0 mb 0.06 in1.5 mm 0.00 in0.0 mm 0.15 in3.8 mm
07:20 AM 59.0°F15.0°C 58.2°F14.6°C 97% 11.1 mph E17.9 kmh E 13.6 mph21.9 kmh 29.65 in1004.1 mb 0.10 in2.5 mm 0.24 in6.1 mm 0.20 in5.1 mm
07:30 AM 59.2°F15.1°C 58.3°F14.6°C 97% 11.1 mph E17.9 kmh E 13.6 mph21.9 kmh 29.65 in1004.1 mb 0.05 in1.3 mm 0.00 in0.0 mm 0.20 in5.1 mm
07:40 AM 59.4°F15.2°C 58.5°F14.7°C 97% 5.2 mph E8.4 kmh E 6.4 mph10.3 kmh 29.65 in1004.1 mb 0.05 in1.3 mm 0.00 in0.0 mm 0.20 in5.1 mm
07:50 AM 59.5°F15.3°C 58.7°F14.8°C 97% 7.2 mph ENE11.6 kmh ENE 19.0 mph30.6 kmh 29.65 in1004.1 mb 0.05 in1.3 mm 0.00 in0.0 mm 0.20 in5.1 mm
08:00 AM 59.7°F15.4°C 58.9°F14.9°C 97% 9.6 mph NE15.4 kmh NE 19.0 mph30.6 kmh 29.62 in1003.0 mb 0.05 in1.3 mm 0.00 in0.0 mm 0.20 in5.1 mm
08:10 AM 59.9°F15.5°C 59.0°F15.0°C 97% 10.5 mph N16.9 kmh N 12.9 mph20.8 kmh 29.62 in1003.0 mb 0.05 in1.3 mm 0.00 in0.0 mm 0.20 in5.1 mm
08:20 AM 60.1°F15.6°C 59.2°F15.1°C 97% 10.5 mph N16.9 kmh N 12.9 mph20.8 kmh 29.68 in1005.1 mb 0.00 in0.0 mm 0.00 in0.0 mm 0.20 in5.1 mm
08:30 AM 60.6°F15.9°C 59.8°F15.4°C 97% 10.0 mph E16.1 kmh E 16.5 mph26.6 kmh 29.65 in1004.1 mb 0.00 in0.0 mm 0.00 in0.0 mm 0.20 in5.1 mm
08:40 AM 60.8°F16.0°C 59.9°F15.5°C 97% 9.6 mph E15.4 kmh E 16.5 mph26.6 kmh 29.65 in1004.1 mb 0.00 in0.0 mm 0.00 in0.0 mm 0.20 in5.1 mm
08:50 AM 61.0°F16.1°C 60.1°F15.6°C 97% 8.8 mph E14.2 kmh E 14.0 mph22.5 kmh 29.65 in1004.1 mb 0.00 in0.0 mm 0.00 in0.0 mm 0.20 in5.1 mm
09:00 AM 61.9°F16.6°C 61.0°F16.1°C 97% 8.7 mph E14.0 kmh E 12.5 mph20.1 kmh 29.65 in1004.1 mb 0.00 in0.0 mm 0.00 in0.0 mm 0.20 in5.1 mm
09:10 AM 61.9°F16.6°C 60.7°F15.9°C 96% 12.3 mph E19.8 kmh E 17.9 mph28.8 kmh 29.65 in1004.1 mb 0.00 in0.0 mm 0.00 in0.0 mm 0.20 in5.1 mm
09:20 AM 61.9°F16.6°C 60.4°F15.8°C 95% 9.7 mph E15.6 kmh E 12.2 mph19.6 kmh 29.65 in1004.1 mb 0.00 in0.0 mm 0.00 in0.0 mm 0.20 in5.1 mm
09:30 AM 62.2°F16.8°C 60.8°F16.0°C 95% 10.0 mph E16.1 kmh E 17.2 mph27.7 kmh 29.65 in1004.1 mb 0.00 in0.0 mm 0.00 in0.0 mm 0.20 in5.1 mm
09:40 AM 62.1°F16.7°C 60.3°F15.7°C 94% 10.6 mph E17.1 kmh E 17.2 mph27.7 kmh 29.65 in1004.1 mb 0.00 in0.0 mm 0.00 in0.0 mm 0.20 in5.1 mm
09:50 AM 62.6°F17.0°C 60.8°F16.0°C 94% 8.6 mph E13.8 kmh E 15.7 mph25.3 kmh 29.65 in1004.1 mb 0.00 in0.0 mm 0.00 in0.0 mm 0.20 in5.1 mm
10:00 AM 63.0°F17.2°C 60.6°F15.9°C 92% 10.7 mph E17.2 kmh E 21.5 mph34.6 kmh 29.65 in1004.1 mb 0.00 in0.0 mm 0.00 in0.0 mm 0.20 in5.1 mm
10:10 AM 62.8°F17.1°C 60.1°F15.6°C 91% 5.8 mph E9.3 kmh E 10.4 mph16.7 kmh 29.65 in1004.1 mb 0.00 in0.0 mm 0.00 in0.0 mm 0.20 in5.1 mm
10:20 AM 62.6°F17.0°C 59.9°F15.5°C 91% 13.0 mph E20.9 kmh E 21.1 mph34.0 kmh 29.65 in1004.1 mb 0.00 in0.0 mm 0.00 in0.0 mm 0.20 in5.1 mm
10:30 AM 62.6°F17.0°C 60.2°F15.7°C 92% 11.1 mph E17.9 kmh E 13.6 mph21.9 kmh 29.65 in1004.1 mb 0.00 in0.0 mm 0.00 in0.0 mm 0.20 in5.1 mm
10:40 AM 63.5°F17.5°C 61.7°F16.5°C 94% 9.3 mph E15.0 kmh E 16.1 mph25.9 kmh 29.65 in1004.1 mb 0.00 in0.0 mm 0.00 in0.0 mm 0.20 in5.1 mm
10:50 AM 65.1°F18.4°C 63.7°F17.6°C 95% 8.6 mph E13.8 kmh E 19.7 mph31.7 kmh 29.65 in1004.1 mb 0.00 in0.0 mm 0.00 in0.0 mm 0.20 in5.1 mm
11:00 AM 65.8°F18.8°C 63.8°F17.7°C 93% 8.5 mph E13.7 kmh E 14.3 mph23.0 kmh 29.65 in1004.1 mb 0.00 in0.0 mm 0.00 in0.0 mm 0.20 in5.1 mm
11:10 AM 65.8°F18.8°C 62.5°F16.9°C 89% 7.9 mph E12.7 kmh E 12.2 mph19.6 kmh 29.65 in1004.1 mb 0.00 in0.0 mm 0.00 in0.0 mm 0.20 in5.1 mm
11:20 AM 66.6°F19.2°C 63.5°F17.5°C 90% 6.5 mph E10.5 kmh E 12.9 mph20.8 kmh 29.65 in1004.1 mb 0.00 in0.0 mm 0.00 in0.0 mm 0.20 in5.1 mm
11:30 AM 67.8°F19.9°C 64.8°F18.2°C 90% 8.4 mph E13.5 kmh E 17.5 mph28.2 kmh 29.65 in1004.1 mb 0.00 in0.0 mm 0.00 in0.0 mm 0.20 in5.1 mm
11:40 AM 68.0°F20.0°C 63.7°F17.6°C 86% 7.7 mph E12.4 kmh E 15.7 mph25.3 kmh 29.65 in1004.1 mb 0.00 in0.0 mm 0.00 in0.0 mm 0.20 in5.1 mm
11:50 AM 67.8°F19.9°C 63.1°F17.3°C 85% 7.2 mph E11.6 kmh E 14.3 mph23.0 kmh 29.65 in1004.1 mb 0.00 in0.0 mm 0.00 in0.0 mm 0.20 in5.1 mm
12:00 PM 69.1°F20.6°C 65.0°F18.3°C 87% 7.3 mph E11.7 kmh E 16.1 mph25.9 kmh 29.62 in1003.0 mb 0.00 in0.0 mm 0.00 in0.0 mm 0.20 in5.1 mm
12:10 PM 69.6°F20.9°C 64.2°F17.9°C 83% 8.4 mph E13.5 kmh E 20.0 mph32.2 kmh 29.62 in1003.0 mb 0.00 in0.0 mm 0.00 in0.0 mm 0.20 in5.1 mm
12:20 PM 70.5°F21.4°C 65.4°F18.6°C 84% 9.1 mph E14.6 kmh E 21.5 mph34.6 kmh 29.62 in1003.0 mb 0.00 in0.0 mm 0.00 in0.0 mm 0.20 in5.1 mm
12:30 PM 71.2°F21.8°C 65.5°F18.6°C 82% 10.2 mph E16.4 kmh E 23.6 mph38.0 kmh 29.62 in1003.0 mb 0.00 in0.0 mm 0.00 in0.0 mm 0.20 in5.1 mm
12:40 PM 71.6°F22.0°C 62.9°F17.2°C 74% 15.1 mph ESE24.3 kmh ESE 27.9 mph44.9 kmh 29.62 in1003.0 mb 0.00 in0.0 mm 0.00 in0.0 mm 0.20 in5.1 mm
12:50 PM 71.1°F21.7°C 62.7°F17.1°C 75% 17.8 mph E28.6 kmh E 27.9 mph44.9 kmh 29.65 in1004.1 mb 0.00 in0.0 mm 0.00 in0.0 mm 0.20 in5.1 mm
01:00 PM 70.5°F21.4°C 62.6°F17.0°C 76% 11.5 mph SE18.5 kmh SE 19.0 mph30.6 kmh 29.65 in1004.1 mb 0.00 in0.0 mm 0.00 in0.0 mm 0.20 in5.1 mm
01:10 PM 70.0°F21.1°C 60.9°F16.1°C 73% 8.3 mph E13.4 kmh E 20.0 mph32.2 kmh 29.65 in1004.1 mb 0.00 in0.0 mm 0.00 in0.0 mm 0.20 in5.1 mm
01:20 PM 69.6°F20.9°C 61.7°F16.5°C 76% 7.7 mph ENE12.4 kmh ENE 21.5 mph34.6 kmh 29.65 in1004.1 mb 0.00 in0.0 mm 0.00 in0.0 mm 0.20 in5.1 mm
01:30 PM 70.2°F21.2°C 62.6°F17.0°C 77% 11.7 mph E18.8 kmh E 23.3 mph37.5 kmh 29.65 in1004.1 mb 0.00 in0.0 mm 0.00 in0.0 mm 0.20 in5.1 mm
01:40 PM 69.8°F21.0°C 61.5°F16.4°C 75% 6.7 mph NE10.8 kmh NE 14.0 mph22.5 kmh 29.65 in1004.1 mb 0.00 in0.0 mm 0.00 in0.0 mm 0.20 in5.1 mm
01:50 PM 68.9°F20.5°C 60.3°F15.7°C 74% 8.7 mph E14.0 kmh E 17.2 mph27.7 kmh 29.65 in1004.1 mb 0.00 in0.0 mm 0.00 in0.0 mm 0.20 in5.1 mm
02:00 PM 68.9°F20.5°C 60.6°F15.9°C 75% 6.5 mph E10.5 kmh E 12.9 mph20.8 kmh 29.65 in1004.1 mb 0.00 in0.0 mm 0.00 in0.0 mm 0.20 in5.1 mm
02:10 PM 68.5°F20.3°C 59.9°F15.5°C 74% 11.7 mph E18.8 kmh E 17.2 mph27.7 kmh 29.65 in1004.1 mb 0.00 in0.0 mm 0.00 in0.0 mm 0.20 in5.1 mm
02:20 PM 68.7°F20.4°C 60.5°F15.8°C 75% 9.2 mph E14.8 kmh E 15.0 mph24.1 kmh 29.65 in1004.1 mb 0.00 in0.0 mm 0.00 in0.0 mm 0.20 in5.1 mm
02:30 PM 68.0°F20.0°C 59.0°F15.0°C 73% 9.8 mph E15.8 kmh E 15.7 mph25.3 kmh 29.65 in1004.1 mb 0.00 in0.0 mm 0.00 in0.0 mm 0.20 in5.1 mm
02:40 PM 67.5°F19.7°C 59.3°F15.2°C 75% 10.1 mph E16.3 kmh E 16.5 mph26.6 kmh 29.65 in1004.1 mb 0.00 in0.0 mm 0.00 in0.0 mm 0.20 in5.1 mm
02:50 PM 66.9°F19.4°C 59.1°F15.1°C 76% 6.8 mph E10.9 kmh E 11.5 mph18.5 kmh 29.65 in1004.1 mb 0.00 in0.0 mm 0.00 in0.0 mm 0.20 in5.1 mm
03:00 PM 66.6°F19.2°C 59.1°F15.1°C 77% 5.7 mph E9.2 kmh E 11.5 mph18.5 kmh 29.65 in1004.1 mb 0.00 in0.0 mm 0.00 in0.0 mm 0.20 in5.1 mm
03:10 PM 66.4°F19.1°C 58.9°F14.9°C 77% 6.9 mph E11.1 kmh E 16.1 mph25.9 kmh 29.65 in1004.1 mb 0.00 in0.0 mm 0.00 in0.0 mm 0.20 in5.1 mm
03:20 PM 66.2°F19.0°C 59.1°F15.1°C 78% 9.9 mph E15.9 kmh E 16.5 mph26.6 kmh 29.62 in1003.0 mb 0.00 in0.0 mm 0.00 in0.0 mm 0.20 in5.1 mm
03:30 PM 66.0°F18.9°C 59.0°F15.0°C 78% 7.4 mph ENE11.9 kmh ENE 17.2 mph27.7 kmh 29.62 in1003.0 mb 0.00 in0.0 mm 0.00 in0.0 mm 0.20 in5.1 mm
03:40 PM 66.0°F18.9°C 59.3°F15.2°C 79% 5.8 mph ENE9.3 kmh ENE 14.0 mph22.5 kmh 29.62 in1003.0 mb 0.00 in0.0 mm 0.00 in0.0 mm 0.20 in5.1 mm
03:50 PM 66.2°F19.0°C 59.5°F15.3°C 79% 7.7 mph ENE12.4 kmh ENE 20.8 mph33.5 kmh 29.59 in1002.0 mb 0.00 in0.0 mm 0.00 in0.0 mm 0.20 in5.1 mm
04:00 PM 66.2°F19.0°C 59.1°F15.1°C 78% 7.6 mph ENE12.2 kmh ENE 15.0 mph24.1 kmh 29.62 in1003.0 mb 0.00 in0.0 mm 0.00 in0.0 mm 0.20 in5.1 mm
04:10 PM 65.8°F18.8°C 59.1°F15.1°C 79% 8.5 mph NE13.7 kmh NE 15.4 mph24.8 kmh 29.62 in1003.0 mb 0.00 in0.0 mm 0.00 in0.0 mm 0.20 in5.1 mm
04:20 PM 65.7°F18.7°C 59.3°F15.2°C 80% 5.8 mph ENE9.3 kmh ENE 12.2 mph19.6 kmh 29.62 in1003.0 mb 0.00 in0.0 mm 0.00 in0.0 mm 0.20 in5.1 mm
04:30 PM 65.5°F18.6°C 59.1°F15.1°C 80% 5.8 mph E9.3 kmh E 12.9 mph20.8 kmh 29.62 in1003.0 mb 0.00 in0.0 mm 0.00 in0.0 mm 0.20 in5.1 mm
04:40 PM 65.3°F18.5°C 59.3°F15.2°C 81% 5.4 mph E8.7 kmh E 11.5 mph18.5 kmh 29.62 in1003.0 mb 0.00 in0.0 mm 0.00 in0.0 mm 0.20 in5.1 mm
04:50 PM 65.1°F18.4°C 59.5°F15.3°C 82% 7.2 mph ENE11.6 kmh ENE 14.0 mph22.5 kmh 29.62 in1003.0 mb 0.00 in0.0 mm 0.00 in0.0 mm 0.20 in5.1 mm
05:00 PM 64.8°F18.2°C 59.1°F15.1°C 82% 5.4 mph ENE8.7 kmh ENE 11.5 mph18.5 kmh 29.59 in1002.0 mb 0.00 in0.0 mm 0.00 in0.0 mm 0.20 in5.1 mm
05:10 PM 64.6°F18.1°C 59.0°F15.0°C 82% 3.3 mph ENE5.3 kmh ENE 8.6 mph13.8 kmh 29.59 in1002.0 mb 0.00 in0.0 mm 0.00 in0.0 mm 0.20 in5.1 mm
05:20 PM 64.4°F18.0°C 58.8°F14.9°C 82% 6.0 mph ENE9.7 kmh ENE 10.4 mph16.7 kmh 29.59 in1002.0 mb 0.00 in0.0 mm 0.00 in0.0 mm 0.20 in5.1 mm
05:30 PM 64.0°F17.8°C 58.8°F14.9°C 83% 3.8 mph ENE6.1 kmh ENE 9.7 mph15.6 kmh 29.56 in1001.0 mb 0.00 in0.0 mm 0.00 in0.0 mm 0.20 in5.1 mm
05:40 PM 63.5°F17.5°C 58.2°F14.6°C 83% 8.3 mph ENE13.4 kmh ENE 14.0 mph22.5 kmh 29.56 in1001.0 mb 0.00 in0.0 mm 0.00 in0.0 mm 0.20 in5.1 mm
05:50 PM 63.1°F17.3°C 57.9°F14.4°C 83% 5.7 mph E9.2 kmh E 12.5 mph20.1 kmh 29.56 in1001.0 mb 0.00 in0.0 mm 0.00 in0.0 mm 0.20 in5.1 mm
06:00 PM 62.6°F17.0°C 57.7°F14.3°C 84% 6.1 mph E9.8 kmh E 10.0 mph16.1 kmh 29.56 in1001.0 mb 0.00 in0.0 mm 0.00 in0.0 mm 0.20 in5.1 mm
06:10 PM 62.2°F16.8°C 57.3°F14.1°C 84% 6.2 mph ENE10.0 kmh ENE 13.6 mph21.9 kmh 29.56 in1001.0 mb 0.00 in0.0 mm 0.00 in0.0 mm 0.20 in5.1 mm
06:20 PM 61.9°F16.6°C 57.3°F14.1°C 85% 7.3 mph E11.7 kmh E 16.5 mph26.6 kmh 29.56 in1001.0 mb 0.00 in0.0 mm 0.00 in0.0 mm 0.20 in5.1 mm
06:30 PM 61.3°F16.3°C 57.1°F13.9°C 86% 8.8 mph E14.2 kmh E 20.0 mph32.2 kmh 29.56 in1001.0 mb 0.00 in0.0 mm 0.00 in0.0 mm 0.20 in5.1 mm
06:40 PM 61.2°F16.2°C 57.3°F14.1°C 87% 6.5 mph E10.5 kmh E 15.4 mph24.8 kmh 29.56 in1001.0 mb 0.00 in0.0 mm 0.00 in0.0 mm 0.20 in5.1 mm
06:50 PM 61.0°F16.1°C 57.1°F13.9°C 87% 6.7 mph E10.8 kmh E 21.1 mph34.0 kmh 29.56 in1001.0 mb 0.00 in0.0 mm 0.00 in0.0 mm 0.20 in5.1 mm
07:00 PM 60.8°F16.0°C 57.2°F14.0°C 88% 7.2 mph ENE11.6 kmh ENE 17.2 mph27.7 kmh 29.56 in1001.0 mb 0.00 in0.0 mm 0.00 in0.0 mm 0.20 in5.1 mm
07:10 PM 60.6°F15.9°C 57.0°F13.9°C 88% 7.4 mph E11.9 kmh E 19.3 mph31.1 kmh 29.56 in1001.0 mb 0.00 in0.0 mm 0.00 in0.0 mm 0.20 in5.1 mm
07:20 PM 60.4°F15.8°C 56.9°F13.8°C 88% 6.7 mph E10.8 kmh E 12.2 mph19.6 kmh 29.59 in1002.0 mb 0.00 in0.0 mm 0.00 in0.0 mm 0.20 in5.1 mm
07:30 PM 60.4°F15.8°C 57.2°F14.0°C 89% 5.6 mph E9.0 kmh E 9.7 mph15.6 kmh 29.56 in1001.0 mb 0.00 in0.0 mm 0.00 in0.0 mm 0.20 in5.1 mm
07:40 PM 60.4°F15.8°C 57.2°F14.0°C 89% 6.9 mph E11.1 kmh E 19.3 mph31.1 kmh 29.56 in1001.0 mb 0.00 in0.0 mm 0.00 in0.0 mm 0.20 in5.1 mm
07:50 PM 60.3°F15.7°C 57.0°F13.9°C 89% 7.4 mph E11.9 kmh E 13.6 mph21.9 kmh 29.56 in1001.0 mb 0.00 in0.0 mm 0.00 in0.0 mm 0.20 in5.1 mm
08:00 PM 60.3°F15.7°C 57.3°F14.1°C 90% 8.1 mph E13.0 kmh E 19.3 mph31.1 kmh 29.59 in1002.0 mb 0.00 in0.0 mm 0.00 in0.0 mm 0.20 in5.1 mm
08:10 PM 60.1°F15.6°C 57.1°F13.9°C 90% 7.5 mph E12.1 kmh E 17.5 mph28.2 kmh 29.59 in1002.0 mb 0.00 in0.0 mm 0.00 in0.0 mm 0.20 in5.1 mm
08:20 PM 60.1°F15.6°C 57.1°F13.9°C 90% 9.4 mph E15.1 kmh E 20.8 mph33.5 kmh 29.59 in1002.0 mb 0.00 in0.0 mm 0.00 in0.0 mm 0.20 in5.1 mm
08:30 PM 59.9°F15.5°C 57.0°F13.9°C 90% 9.3 mph E15.0 kmh E 17.5 mph28.2 kmh 29.59 in1002.0 mb 0.00 in0.0 mm 0.00 in0.0 mm 0.20 in5.1 mm
08:40 PM 59.7°F15.4°C 57.1°F13.9°C 91% 8.9 mph E14.3 kmh E 17.5 mph28.2 kmh 29.59 in1002.0 mb 0.00 in0.0 mm 0.00 in0.0 mm 0.20 in5.1 mm
08:50 PM 59.7°F15.4°C 57.1°F13.9°C 91% 8.0 mph E12.9 kmh E 17.2 mph27.7 kmh 29.56 in1001.0 mb 0.00 in0.0 mm 0.00 in0.0 mm 0.20 in5.1 mm
09:00 PM 59.5°F15.3°C 56.9°F13.8°C 91% 7.1 mph E11.4 kmh E 13.6 mph21.9 kmh 29.53 in1000.0 mb 0.00 in0.0 mm 0.00 in0.0 mm 0.20 in5.1 mm
09:10 PM 59.5°F15.3°C 56.9°F13.8°C 91% 7.4 mph E11.9 kmh E 17.2 mph27.7 kmh 29.53 in1000.0 mb 0.00 in0.0 mm 0.00 in0.0 mm 0.20 in5.1 mm
09:20 PM 59.5°F15.3°C 57.2°F14.0°C 92% 7.5 mph E12.1 kmh E 17.5 mph28.2 kmh 29.56 in1001.0 mb 0.00 in0.0 mm 0.00 in0.0 mm 0.20 in5.1 mm
09:30 PM 59.5°F15.3°C 57.2°F14.0°C 92% 7.8 mph E12.6 kmh E 13.6 mph21.9 kmh 29.56 in1001.0 mb 0.00 in0.0 mm 0.00 in0.0 mm 0.20 in5.1 mm
09:40 PM 59.4°F15.2°C 57.0°F13.9°C 92% 9.8 mph E15.8 kmh E 16.5 mph26.6 kmh 29.56 in1001.0 mb 0.00 in0.0 mm 0.00 in0.0 mm 0.20 in5.1 mm
09:50 PM 59.4°F15.2°C 57.0°F13.9°C 92% 8.2 mph E13.2 kmh E 19.7 mph31.7 kmh 29.56 in1001.0 mb 0.00 in0.0 mm 0.00 in0.0 mm 0.20 in5.1 mm
10:00 PM 59.4°F15.2°C 57.3°F14.1°C 93% 8.6 mph E13.8 kmh E 17.5 mph28.2 kmh 29.59 in1002.0 mb 0.00 in0.0 mm 0.00 in0.0 mm 0.20 in5.1 mm
10:10 PM 59.4°F15.2°C 57.3°F14.1°C 93% 8.4 mph E13.5 kmh E 15.0 mph24.1 kmh 29.59 in1002.0 mb 0.00 in0.0 mm 0.00 in0.0 mm 0.20 in5.1 mm
10:20 PM 59.4°F15.2°C 57.6°F14.2°C 94% 8.9 mph E14.3 kmh E 15.7 mph25.3 kmh 29.56 in1001.0 mb 0.00 in0.0 mm 0.00 in0.0 mm 0.20 in5.1 mm
10:30 PM 59.4°F15.2°C 57.6°F14.2°C 94% 8.2 mph E13.2 kmh E 16.8 mph27.0 kmh 29.53 in1000.0 mb 0.00 in0.0 mm 0.00 in0.0 mm 0.20 in5.1 mm
10:40 PM 59.5°F15.3°C 57.8°F14.3°C 94% 6.9 mph SE11.1 kmh SE 12.5 mph20.1 kmh 29.53 in1000.0 mb 0.00 in0.0 mm 0.00 in0.0 mm 0.20 in5.1 mm
10:50 PM 59.7°F15.4°C 58.0°F14.4°C 94% 7.9 mph ESE12.7 kmh ESE 15.7 mph25.3 kmh 29.62 in1003.0 mb 0.00 in0.0 mm 0.00 in0.0 mm 0.20 in5.1 mm
11:00 PM 59.4°F15.2°C 57.6°F14.2°C 94% 8.4 mph ESE13.5 kmh ESE 17.9 mph28.8 kmh 29.62 in1003.0 mb 0.00 in0.0 mm 0.00 in0.0 mm 0.19 in4.8 mm
11:10 PM 59.2°F15.1°C 57.5°F14.2°C 94% 9.9 mph ESE15.9 kmh ESE 16.8 mph27.0 kmh 29.62 in1003.0 mb 0.00 in0.0 mm 0.00 in0.0 mm 0.19 in4.8 mm
11:30 PM 59.0°F15.0°C 57.3°F14.1°C 94% Calm Calm -- 29.59 in1002.0 mb 0.00 in0.0 mm 0.00 in0.0 mm 0.19 in4.8 mm
11:31 PM 59.0°F15.0°C 57.3°F14.1°C 94% Calm Calm -- 29.59 in1002.0 mb 0.00 in0.0 mm 0.00 in0.0 mm 0.19 in4.8 mm
11:33 PM 59.0°F15.0°C 57.3°F14.1°C 94% Calm Calm -- 29.59 in1002.0 mb 0.00 in0.0 mm 0.00 in0.0 mm 0.19 in4.8 mm
11:34 PM 59.0°F15.0°C 57.3°F14.1°C 94% Calm Calm -- 29.59 in1002.0 mb 0.00 in0.0 mm 0.00 in0.0 mm 0.05 in1.3 mm
11:35 PM 59.0°F15.0°C 57.3°F14.1°C 94% Calm Calm -- 29.59 in1002.0 mb 0.00 in0.0 mm 0.00 in0.0 mm 0.05 in1.3 mm
11:36 PM 59.0°F15.0°C 57.3°F14.1°C 94% Calm Calm -- 29.59 in1002.0 mb 0.00 in0.0 mm 0.00 in0.0 mm 0.05 in1.3 mm
11:37 PM 59.0°F15.0°C 57.3°F14.1°C 94% Calm Calm -- 29.59 in1002.0 mb 0.00 in0.0 mm 0.00 in0.0 mm 0.05 in1.3 mm
11:38 PM 59.0°F15.0°C 57.3°F14.1°C 94% Calm Calm -- 29.59 in1002.0 mb 0.00 in0.0 mm 0.00 in0.0 mm 0.05 in1.3 mm
11:39 PM 59.0°F15.0°C 57.3°F14.1°C 94% Calm Calm -- 29.59 in1002.0 mb 0.00 in0.0 mm 0.00 in0.0 mm 0.05 in1.3 mm
11:40 PM 59.0°F15.0°C 57.3°F14.1°C 94% Calm Calm -- 29.59 in1002.0 mb 0.00 in0.0 mm 0.00 in0.0 mm 0.05 in1.3 mm
11:41 PM 59.0°F15.0°C 57.3°F14.1°C 94% Calm Calm -- 29.59 in1002.0 mb 0.00 in0.0 mm 0.00 in0.0 mm 0.05 in1.3 mm
11:42 PM 59.0°F15.0°C 57.3°F14.1°C 94% Calm Calm -- 29.59 in1002.0 mb 0.00 in0.0 mm 0.00 in0.0 mm 0.05 in1.3 mm
11:43 PM 59.0°F15.0°C 57.3°F14.1°C 94% Calm Calm -- 29.59 in1002.0 mb 0.00 in0.0 mm 0.00 in0.0 mm 0.05 in1.3 mm
11:44 PM 59.0°F15.0°C 57.6°F14.2°C 95% Calm Calm -- 29.71 in1006.1 mb 0.00 in0.0 mm 0.00 in0.0 mm 0.05 in1.3 mm
11:45 PM 59.0°F15.0°C 57.6°F14.2°C 95% Calm Calm -- 29.71 in1006.1 mb 0.00 in0.0 mm 0.00 in0.0 mm 0.05 in1.3 mm
11:46 PM 59.0°F15.0°C 57.6°F14.2°C 95% Calm Calm -- 29.71 in1006.1 mb 0.00 in0.0 mm 0.00 in0.0 mm 0.05 in1.3 mm
11:47 PM 59.0°F15.0°C 57.6°F14.2°C 95% Calm Calm -- 29.71 in1006.1 mb 0.00 in0.0 mm 0.00 in0.0 mm 0.05 in1.3 mm
11:48 PM 59.0°F15.0°C 57.6°F14.2°C 95% Calm Calm -- 29.71 in1006.1 mb 0.00 in0.0 mm 0.00 in0.0 mm 0.05 in1.3 mm
11:49 PM 59.0°F15.0°C 57.6°F14.2°C 95% Calm Calm -- 29.71 in1006.1 mb 0.00 in0.0 mm 0.00 in0.0 mm 0.05 in1.3 mm
11:50 PM 59.0°F15.0°C 57.6°F14.2°C 95% Calm Calm -- 29.71 in1006.1 mb 0.00 in0.0 mm 0.00 in0.0 mm 0.05 in1.3 mm
11:51 PM 59.0°F15.0°C 57.6°F14.2°C 95% Calm Calm -- 29.71 in1006.1 mb 0.00 in0.0 mm 0.00 in0.0 mm 0.05 in1.3 mm